createdAt,value
2023-01-19T00:01:52.177Z,0.38
2023-01-19T00:04:21.441Z,0.22
2023-01-19T00:06:50.508Z,0.26
2023-01-19T00:09:26.835Z,0.34
2023-01-19T00:11:56.008Z,0.32
2023-01-19T00:14:25.239Z,0.24
2023-01-19T00:17:07.813Z,0.27
2023-01-19T00:19:37.082Z,0.24
2023-01-19T00:22:07.146Z,0.24
2023-01-19T00:24:37.790Z,0.25
2023-01-19T00:27:13.284Z,0.24
2023-01-19T00:29:42.561Z,0.21
2023-01-19T00:32:13.656Z,0.10
2023-01-19T00:34:49.170Z,0.24
2023-01-19T00:37:18.375Z,0.18
2023-01-19T00:39:47.442Z,0.12
2023-01-19T00:42:34.801Z,0.12
2023-01-19T00:45:04.190Z,0.13
2023-01-19T00:47:35.280Z,0.03
2023-01-19T00:52:51.495Z,0.09
2023-01-19T00:55:28.149Z,0.10
2023-01-19T00:57:57.981Z,0.10
2023-01-19T01:00:27.676Z,0.12
2023-01-19T01:02:59.373Z,0.18
2023-01-19T01:05:28.489Z,0.22
2023-01-19T01:07:57.606Z,-0.03
2023-01-19T01:10:30.023Z,0.14
2023-01-19T01:12:59.266Z,0.22
2023-01-19T01:15:29.529Z,0.20
2023-01-19T01:18:00.660Z,0.11
2023-01-19T01:20:30.694Z,0.23
2023-01-19T01:23:00.346Z,0.29
2023-01-19T01:25:37.337Z,0.27
2023-01-19T01:28:08.633Z,0.27
2023-01-19T01:30:43.934Z,0.26
2023-01-19T01:33:15.082Z,0.22
2023-01-19T01:36:04.515Z,0.15
2023-01-19T01:38:33.811Z,0.18
2023-01-19T01:41:10.470Z,0.16
2023-01-19T01:43:47.900Z,0.23
2023-01-19T01:46:19.899Z,0.24
2023-01-19T01:51:42.199Z,0.29
2023-01-19T01:54:20.366Z,0.27
2023-01-19T01:56:51.780Z,0.20
2023-01-19T01:59:34.277Z,0.32
2023-01-19T02:02:21.640Z,0.32
2023-01-19T02:04:55.738Z,0.36
2023-01-19T02:07:49.665Z,0.38
2023-01-19T02:10:35.057Z,0.31
2023-01-19T02:13:23.871Z,0.38
2023-01-19T02:15:55.100Z,0.33
2023-01-19T02:18:27.303Z,0.41
2023-01-19T02:21:05.600Z,0.40
2023-01-19T02:23:48.938Z,0.41
2023-01-19T02:26:20.813Z,0.36
2023-01-19T02:28:52.234Z,0.46
2023-01-19T02:31:21.858Z,0.40
2023-01-19T02:33:51.365Z,0.45
2023-01-19T02:36:25.380Z,0.48
2023-01-19T02:38:58.957Z,0.54
2023-01-19T02:44:23.403Z,0.32
2023-01-19T02:46:55.547Z,0.25
2023-01-19T02:49:24.398Z,0.20
2023-01-19T02:51:53.478Z,0.14
2023-01-19T02:54:50.201Z,-0.19
2023-01-19T02:57:52.571Z,-0.25
2023-01-19T03:00:32.397Z,0.11
2023-01-19T03:03:17.360Z,0.08
2023-01-19T03:06:01.236Z,0.04
2023-01-19T03:08:45.133Z,-0.10
2023-01-19T03:11:22.363Z,-0.20
2023-01-19T03:14:00.898Z,-0.02
2023-01-19T03:16:43.384Z,0.05
2023-01-19T03:19:19.748Z,0.08
2023-01-19T03:21:52.747Z,0.09
2023-01-19T03:24:30.339Z,0.03
2023-01-19T03:27:06.191Z,0.01
2023-01-19T03:29:43.198Z,0.04
2023-01-19T03:34:57.238Z,0.10
2023-01-19T03:37:33.754Z,0.08
2023-01-19T03:40:02.979Z,0.03
2023-01-19T03:42:35.552Z,0.06
2023-01-19T03:45:05.962Z,0.04
2023-01-19T03:47:41.635Z,0.09
2023-01-19T03:50:16.911Z,0.02
2023-01-19T03:52:46.225Z,0.15
2023-01-19T03:55:15.326Z,0.21
2023-01-19T03:57:46.370Z,0.19
2023-01-19T04:00:17.351Z,0.23
2023-01-19T04:02:52.287Z,0.28
2023-01-19T04:05:21.933Z,0.34
2023-01-19T04:07:51.466Z,0.31
2023-01-19T04:10:21.649Z,0.29
2023-01-19T04:13:00.030Z,0.11
2023-01-19T04:15:29.693Z,0.18
2023-01-19T04:17:59.791Z,0.22
2023-01-19T04:20:29.156Z,0.06
2023-01-19T04:25:37.966Z,0.18
2023-01-19T04:28:09.952Z,0.25
2023-01-19T04:30:44.246Z,0.28
2023-01-19T04:33:13.439Z,0.26
2023-01-19T04:35:42.503Z,0.26
2023-01-19T04:40:45.901Z,0.33
2023-01-19T04:43:16.985Z,0.35
2023-01-19T04:45:47.357Z,0.34
2023-01-19T04:48:18.181Z,0.37
2023-01-19T04:50:47.433Z,0.44
2023-01-19T04:53:17.971Z,0.44
2023-01-19T04:55:47.322Z,0.41
2023-01-19T04:58:18.366Z,0.35
2023-01-19T05:00:52.766Z,0.43
2023-01-19T05:03:22.110Z,0.32
2023-01-19T05:05:51.331Z,0.41
2023-01-19T05:08:26.068Z,0.45
2023-01-19T05:10:57.089Z,0.38
2023-01-19T05:13:28.545Z,0.55
2023-01-19T05:15:58.684Z,0.42
2023-01-19T05:18:27.829Z,0.59
2023-01-19T05:20:56.944Z,0.64
2023-01-19T05:23:26.049Z,0.66
2023-01-19T05:25:56.507Z,0.52
2023-01-19T05:28:27.613Z,0.64
2023-01-19T05:30:57.119Z,0.63
2023-01-19T05:33:27.266Z,0.68
2023-01-19T05:35:58.428Z,0.69
2023-01-19T05:38:35.449Z,0.70
2023-01-19T05:41:05.928Z,0.51
2023-01-19T05:43:37.069Z,0.70
2023-01-19T05:46:12.603Z,0.76
2023-01-19T05:48:41.846Z,0.79
2023-01-19T05:51:11.006Z,0.81
2023-01-19T05:53:40.243Z,0.84
2023-01-19T05:56:16.279Z,0.75
2023-01-19T05:58:47.636Z,0.72
2023-01-19T06:01:16.823Z,0.81
2023-01-19T06:03:48.303Z,0.82
2023-01-19T06:06:18.375Z,0.96
2023-01-19T06:08:47.993Z,0.85
2023-01-19T06:11:22.218Z,0.97
2023-01-19T06:13:53.270Z,0.94
2023-01-19T06:16:22.612Z,0.93
2023-01-19T06:18:52.249Z,1.00
2023-01-19T06:21:21.586Z,1.03
2023-01-19T06:23:55.737Z,1.06
2023-01-19T06:26:25.816Z,0.93
2023-01-19T06:28:57.099Z,1.18
2023-01-19T06:31:27.738Z,1.19
2023-01-19T06:33:56.968Z,1.29
2023-01-19T06:36:26.106Z,1.28
2023-01-19T06:38:55.256Z,1.28
2023-01-19T06:41:24.571Z,1.31
2023-01-19T06:43:53.698Z,1.27
2023-01-19T06:46:25.670Z,1.33
2023-01-19T06:48:56.053Z,1.42
2023-01-19T06:54:01.274Z,1.29
2023-01-19T06:56:30.627Z,1.34
2023-01-19T06:59:00.240Z,1.28
2023-01-19T07:01:36.439Z,1.47
2023-01-19T07:04:05.922Z,1.44
2023-01-19T07:06:34.956Z,1.34
2023-01-19T07:09:07.541Z,1.42
2023-01-19T07:11:36.761Z,1.27
2023-01-19T07:14:05.965Z,1.46
2023-01-19T07:16:43.907Z,1.42
2023-01-19T07:19:13.839Z,1.45
2023-01-19T07:21:42.881Z,1.42
2023-01-19T07:24:12.101Z,1.40
2023-01-19T07:26:42.028Z,1.04
2023-01-19T07:29:11.766Z,1.32
2023-01-19T07:31:44.732Z,1.40
2023-01-19T07:34:13.932Z,1.45
2023-01-19T07:36:43.671Z,1.47
2023-01-19T07:39:12.816Z,1.48
2023-01-19T07:41:41.956Z,1.56
2023-01-19T07:44:21.570Z,1.59
2023-01-19T07:46:53.829Z,1.35
2023-01-19T07:49:23.364Z,1.50
2023-01-19T07:51:59.785Z,1.57
2023-01-19T07:54:29.191Z,1.59
2023-01-19T07:57:00.225Z,1.57
2023-01-19T07:59:31.507Z,1.60
2023-01-19T08:02:02.675Z,1.57
2023-01-19T08:04:32.040Z,1.56
2023-01-19T08:07:01.260Z,1.53
2023-01-19T08:09:30.372Z,1.54
2023-01-19T08:11:59.589Z,1.57
2023-01-19T08:14:28.806Z,1.56
2023-01-19T08:17:03.516Z,1.60
2023-01-19T08:19:32.837Z,1.62
2023-01-19T08:22:02.025Z,1.53
2023-01-19T08:24:31.587Z,1.65
2023-01-19T08:27:01.279Z,1.61
2023-01-19T08:29:31.517Z,1.55
2023-01-19T08:32:02.812Z,1.43
2023-01-19T08:34:32.770Z,1.48
2023-01-19T08:37:02.063Z,1.49
2023-01-19T08:39:31.321Z,1.65
2023-01-19T08:42:00.584Z,1.57
2023-01-19T08:44:29.874Z,1.60
2023-01-19T08:46:59.569Z,1.61
2023-01-19T08:49:30.851Z,1.60
2023-01-19T08:52:00.112Z,1.66
2023-01-19T08:54:29.246Z,1.60
2023-01-19T08:57:03.637Z,1.65
2023-01-19T08:59:32.951Z,1.45
2023-01-19T09:02:02.087Z,1.43
2023-01-19T09:04:34.210Z,1.71
2023-01-19T09:07:03.437Z,1.70
2023-01-19T09:09:33.071Z,1.68
2023-01-19T09:12:07.262Z,1.69
2023-01-19T09:14:36.461Z,1.70
2023-01-19T09:17:05.935Z,1.69
2023-01-19T09:19:37.107Z,1.63
2023-01-19T09:22:07.445Z,1.64
2023-01-19T09:24:41.595Z,1.59
2023-01-19T09:27:10.826Z,1.51
2023-01-19T09:29:40.036Z,1.47
2023-01-19T09:32:21.255Z,1.56
2023-01-19T09:34:53.575Z,1.54
2023-01-19T09:37:22.843Z,1.46
2023-01-19T09:39:51.902Z,1.48
2023-01-19T09:42:34.055Z,1.67
2023-01-19T09:45:16.418Z,1.46
2023-01-19T09:50:31.586Z,1.70
2023-01-19T09:53:13.622Z,1.64
2023-01-19T09:55:44.332Z,1.67
2023-01-19T09:58:18.276Z,1.55
2023-01-19T10:00:53.628Z,1.56
2023-01-19T10:03:24.129Z,1.62
2023-01-19T10:06:00.678Z,1.57
2023-01-19T10:08:41.477Z,1.68
2023-01-19T10:11:26.309Z,1.66
2023-01-19T10:14:05.724Z,1.71
2023-01-19T10:16:44.893Z,1.63
2023-01-19T10:19:24.418Z,1.57
2023-01-19T10:21:59.493Z,1.55
2023-01-19T10:27:17.959Z,1.57
2023-01-19T10:29:48.563Z,1.55
2023-01-19T10:32:20.774Z,1.57
2023-01-19T10:34:51.065Z,1.47
2023-01-19T10:37:33.544Z,1.33
2023-01-19T10:40:16.667Z,1.32
2023-01-19T10:42:58.123Z,1.38
2023-01-19T10:45:30.469Z,1.26
2023-01-19T10:48:06.776Z,1.49
2023-01-19T10:53:25.291Z,1.35
2023-01-19T10:56:17.356Z,1.51
2023-01-19T10:58:46.660Z,1.35
2023-01-19T11:04:04.444Z,1.36
2023-01-19T11:06:35.403Z,1.28
2023-01-19T11:09:21.363Z,1.23
2023-01-19T11:11:54.296Z,1.37
2023-01-19T11:14:25.520Z,1.33
2023-01-19T11:17:01.861Z,1.38
2023-01-19T11:19:33.498Z,1.34
2023-01-19T11:22:31.353Z,1.22
2023-01-19T11:25:04.921Z,1.23
2023-01-19T11:27:43.208Z,1.13
2023-01-19T11:30:21.364Z,1.15
2023-01-19T11:32:55.933Z,1.03
2023-01-19T11:35:37.201Z,1.07
2023-01-19T11:38:22.811Z,1.09
2023-01-19T11:41:00.255Z,0.83
2023-01-19T11:43:48.317Z,1.07
2023-01-19T11:46:19.427Z,1.02
2023-01-19T11:48:57.638Z,0.83
2023-01-19T11:51:33.164Z,0.85
2023-01-19T11:54:15.123Z,0.92
2023-01-19T11:56:49.989Z,0.89
2023-01-19T11:59:19.962Z,0.92
2023-01-19T12:01:55.205Z,0.98
2023-01-19T12:04:31.585Z,0.91
2023-01-19T12:07:08.491Z,0.97
2023-01-19T12:09:43.575Z,1.01
2023-01-19T12:12:30.459Z,1.02
2023-01-19T12:15:15.784Z,1.03
2023-01-19T12:17:49.970Z,0.86
2023-01-19T12:20:40.948Z,0.87
2023-01-19T12:23:28.757Z,1.06
2023-01-19T12:26:16.496Z,1.15
2023-01-19T12:28:50.283Z,1.12
2023-01-19T12:31:26.749Z,1.10
2023-01-19T12:33:56.196Z,1.07
2023-01-19T12:36:40.779Z,1.07
2023-01-19T12:39:23.408Z,1.00
2023-01-19T12:42:07.433Z,1.12
2023-01-19T12:44:38.729Z,1.11
2023-01-19T12:54:22.590Z,0.83
2023-01-19T12:56:59.410Z,0.85
2023-01-19T12:59:37.294Z,0.88
2023-01-19T13:02:48.112Z,1.00
2023-01-19T13:05:21.230Z,0.92
2023-01-19T13:08:21.274Z,0.98
2023-01-19T13:11:32.637Z,0.81
2023-01-19T13:14:39.065Z,1.04
2023-01-19T13:17:30.486Z,1.13
2023-01-19T13:20:07.868Z,1.19
2023-01-19T13:23:18.540Z,1.22
2023-01-19T13:26:06.280Z,1.14
2023-01-19T13:28:46.463Z,1.05
2023-01-19T13:31:16.704Z,1.07
2023-01-19T13:33:51.531Z,1.05
2023-01-19T13:36:37.862Z,1.10
2023-01-19T13:39:17.107Z,1.01
2023-01-19T13:41:49.223Z,0.99
2023-01-19T13:44:28.453Z,0.99
2023-01-19T13:47:06.584Z,0.81
2023-01-19T13:49:40.567Z,0.60
2023-01-19T13:52:14.845Z,0.73
2023-01-19T13:54:56.925Z,0.85
2023-01-19T13:57:26.579Z,0.93
2023-01-19T14:00:19.382Z,0.96
2023-01-19T14:02:59.301Z,0.91
2023-01-19T14:05:31.437Z,0.91
2023-01-19T14:08:07.629Z,1.00
2023-01-19T14:10:38.480Z,0.96
2023-01-19T14:13:17.051Z,1.01
2023-01-19T14:15:50.455Z,1.06
2023-01-19T14:18:29.759Z,1.12
2023-01-19T14:21:03.136Z,1.00
2023-01-19T14:23:46.672Z,1.12
2023-01-19T14:26:45.657Z,1.17
2023-01-19T14:29:29.283Z,1.07
2023-01-19T14:32:21.256Z,1.23
2023-01-19T14:34:52.359Z,1.23
2023-01-19T14:37:30.458Z,1.11
2023-01-19T14:40:04.291Z,1.16
2023-01-19T14:42:36.863Z,1.18
2023-01-19T14:45:11.937Z,0.98
2023-01-19T14:47:45.732Z,1.08
2023-01-19T14:50:25.609Z,0.87
2023-01-19T14:53:03.885Z,0.98
2023-01-19T14:55:42.033Z,0.84
2023-01-19T14:58:18.706Z,0.83
2023-01-19T15:00:49.248Z,0.90
2023-01-19T15:03:20.587Z,0.97
2023-01-19T15:05:51.841Z,1.18
2023-01-19T15:11:13.508Z,1.00
2023-01-19T15:13:52.165Z,0.93
2023-01-19T15:16:22.168Z,0.74
2023-01-19T15:18:55.237Z,0.65
2023-01-19T15:21:26.222Z,0.56
2023-01-19T15:24:03.238Z,0.55
2023-01-19T15:26:41.175Z,0.77
2023-01-19T15:29:24.786Z,0.88
2023-01-19T15:31:54.736Z,0.89
2023-01-19T15:37:01.281Z,0.99
2023-01-19T15:39:30.444Z,0.90
2023-01-19T15:44:44.936Z,1.08
2023-01-19T15:47:13.729Z,1.11
2023-01-19T15:49:44.878Z,1.00
2023-01-19T15:52:19.220Z,0.93
2023-01-19T15:54:48.525Z,1.10
2023-01-19T15:57:19.119Z,1.09
2023-01-19T15:59:54.741Z,1.13
2023-01-19T16:02:23.839Z,1.11
2023-01-19T16:07:32.521Z,0.86
2023-01-19T16:10:01.756Z,0.88
2023-01-19T16:12:38.012Z,0.82
2023-01-19T16:15:15.929Z,0.83
2023-01-19T16:17:45.621Z,0.68
2023-01-19T16:20:39.043Z,0.85
2023-01-19T16:23:15.978Z,0.82
2023-01-19T16:25:45.052Z,0.91
2023-01-19T16:28:25.218Z,0.90
2023-01-19T16:30:54.988Z,0.78
2023-01-19T16:33:25.791Z,0.75
2023-01-19T16:35:57.195Z,0.64
2023-01-19T16:38:26.537Z,0.58
2023-01-19T16:40:56.785Z,0.42
2023-01-19T16:43:28.374Z,0.55
2023-01-19T16:46:02.860Z,0.52
2023-01-19T16:48:32.565Z,0.52
2023-01-19T16:51:06.537Z,0.54
2023-01-19T16:56:22.161Z,0.45
2023-01-19T16:58:56.806Z,0.47
2023-01-19T17:01:32.218Z,0.37
2023-01-19T17:04:04.281Z,0.49
2023-01-19T17:06:40.657Z,0.54
2023-01-19T17:09:31.635Z,0.58
2023-01-19T17:12:09.353Z,0.39
2023-01-19T17:14:38.651Z,0.42
2023-01-19T17:17:09.006Z,0.54
2023-01-19T17:19:38.401Z,0.56
2023-01-19T17:22:09.459Z,0.50
2023-01-19T17:24:42.026Z,0.64
2023-01-19T17:27:19.475Z,0.56
2023-01-19T17:29:50.461Z,0.65
2023-01-19T17:32:21.714Z,0.76
2023-01-19T17:34:51.202Z,0.76
2023-01-19T17:37:22.818Z,0.69
2023-01-19T17:39:52.171Z,0.64
2023-01-19T17:42:21.322Z,0.68
2023-01-19T17:44:50.642Z,0.69
2023-01-19T17:47:25.060Z,0.73
2023-01-19T17:49:55.200Z,0.61
2023-01-19T17:52:26.518Z,0.82
2023-01-19T17:55:08.906Z,0.79
2023-01-19T17:57:49.105Z,0.74
2023-01-19T18:00:19.720Z,0.75
2023-01-19T18:02:51.539Z,0.77
2023-01-19T18:05:21.599Z,0.79
2023-01-19T18:07:54.002Z,0.75
2023-01-19T18:10:23.408Z,0.74
2023-01-19T18:12:52.567Z,0.72
2023-01-19T18:15:21.782Z,0.81
2023-01-19T18:18:03.734Z,0.81
2023-01-19T18:20:32.726Z,0.89
2023-01-19T18:23:08.674Z,0.68
2023-01-19T18:25:47.742Z,0.73
2023-01-19T18:28:22.034Z,0.71
2023-01-19T18:30:52.841Z,0.43
2023-01-19T18:33:22.050Z,0.50
2023-01-19T18:35:51.782Z,0.51
2023-01-19T18:38:23.296Z,0.65
2023-01-19T18:41:02.236Z,0.64
2023-01-19T18:43:34.300Z,0.61
2023-01-19T18:46:03.409Z,0.76
2023-01-19T18:48:32.976Z,0.60
2023-01-19T18:51:09.990Z,0.60
2023-01-19T18:53:41.539Z,0.32
2023-01-19T18:56:17.311Z,0.56
2023-01-19T18:58:46.998Z,0.56
2023-01-19T19:01:21.837Z,0.65
2023-01-19T19:03:51.685Z,0.71
2023-01-19T19:06:26.526Z,0.58
2023-01-19T19:08:59.702Z,0.79
2023-01-19T19:11:29.579Z,0.77
2023-01-19T19:14:00.408Z,0.79
2023-01-19T19:16:30.361Z,0.80
2023-01-19T19:19:01.210Z,0.85
2023-01-19T19:21:30.554Z,0.78
2023-01-19T19:26:37.358Z,0.62
2023-01-19T19:29:06.416Z,0.77
2023-01-19T19:31:40.614Z,0.84
2023-01-19T19:34:11.951Z,0.81
2023-01-19T19:36:44.837Z,0.85
2023-01-19T19:39:16.272Z,0.80
2023-01-19T19:41:52.208Z,0.89
2023-01-19T19:44:21.452Z,0.96
2023-01-19T19:46:50.757Z,0.87
2023-01-19T19:52:07.443Z,1.01
2023-01-19T19:54:38.951Z,0.95
2023-01-19T19:57:08.112Z,0.94
2023-01-19T19:59:37.350Z,0.94
2023-01-19T20:02:14.043Z,0.78
2023-01-19T20:04:44.844Z,0.88
2023-01-19T20:07:14.852Z,0.67
2023-01-19T20:09:47.199Z,0.83
2023-01-19T20:12:21.732Z,0.90
2023-01-19T20:14:56.484Z,0.96
2023-01-19T20:17:25.929Z,0.99
2023-01-19T20:20:01.953Z,0.96
2023-01-19T20:22:37.941Z,0.94
2023-01-19T20:25:15.581Z,0.93
2023-01-19T20:27:45.080Z,0.93
2023-01-19T20:30:14.921Z,0.86
2023-01-19T20:32:47.457Z,0.92
2023-01-19T20:35:16.874Z,0.97
2023-01-19T20:37:46.092Z,1.01
2023-01-19T20:40:32.107Z,1.04
2023-01-19T20:43:03.756Z,1.12
2023-01-19T20:45:33.043Z,1.15
2023-01-19T20:48:02.341Z,1.01
2023-01-19T20:50:31.504Z,1.15
2023-01-19T20:53:00.624Z,1.14
2023-01-19T20:55:34.581Z,1.16
2023-01-19T20:58:04.027Z,1.13
2023-01-19T21:00:40.296Z,1.21
2023-01-19T21:03:14.592Z,1.22
2023-01-19T21:05:43.845Z,1.26
2023-01-19T21:08:35.186Z,1.26
2023-01-19T21:11:13.409Z,1.17
2023-01-19T21:16:43.557Z,1.21
2023-01-19T21:19:17.598Z,1.30
2023-01-19T21:21:48.757Z,1.29
2023-01-19T21:24:19.494Z,1.34
2023-01-19T21:26:50.583Z,1.31
2023-01-19T21:29:20.069Z,1.30
2023-01-19T21:31:49.228Z,1.30
2023-01-19T21:34:18.698Z,1.31
2023-01-19T21:36:47.884Z,1.31
2023-01-19T21:39:17.487Z,1.33
2023-01-19T21:41:51.923Z,1.34
2023-01-19T21:44:23.105Z,1.36
2023-01-19T21:46:52.369Z,1.37
2023-01-19T21:49:22.348Z,1.43
2023-01-19T21:51:52.059Z,1.37
2023-01-19T21:57:02.994Z,1.43
2023-01-19T21:59:34.397Z,1.46
2023-01-19T22:02:05.342Z,1.47
2023-01-19T22:04:40.195Z,1.43
2023-01-19T22:07:14.568Z,1.45
2023-01-19T22:09:43.872Z,1.25
2023-01-19T22:12:12.883Z,1.35
2023-01-19T22:14:44.303Z,1.36
2023-01-19T22:17:14.806Z,1.43
2023-01-19T22:19:44.001Z,1.40
2023-01-19T22:22:14.599Z,1.48
2023-01-19T22:24:46.512Z,1.45
2023-01-19T22:27:15.286Z,1.56
2023-01-19T22:29:46.578Z,1.51
2023-01-19T22:34:55.264Z,1.50
2023-01-19T22:37:26.196Z,1.61
2023-01-19T22:39:55.543Z,1.52
2023-01-19T22:42:24.556Z,1.62
2023-01-19T22:44:56.108Z,1.60
2023-01-19T22:47:25.319Z,1.62
2023-01-19T22:49:54.503Z,1.64
2023-01-19T22:52:23.891Z,1.63
2023-01-19T22:54:55.901Z,1.62
2023-01-19T22:57:25.247Z,1.48
2023-01-19T22:59:58.365Z,1.65
2023-01-19T23:02:27.925Z,1.71
2023-01-19T23:04:59.771Z,1.57
2023-01-19T23:07:34.640Z,1.70
2023-01-19T23:10:06.556Z,1.64
2023-01-19T23:12:35.382Z,1.78
2023-01-19T23:15:07.485Z,1.70
2023-01-19T23:17:44.969Z,1.70
2023-01-19T23:20:14.831Z,1.64
2023-01-19T23:22:43.918Z,1.74
2023-01-19T23:25:18.644Z,1.71
2023-01-19T23:27:47.749Z,1.72
2023-01-19T23:30:19.449Z,1.70
2023-01-19T23:32:49.974Z,1.77
2023-01-19T23:35:24.280Z,1.78
2023-01-19T23:37:53.396Z,1.77
2023-01-19T23:40:22.671Z,1.85
2023-01-19T23:42:51.832Z,1.75
2023-01-19T23:45:23.370Z,1.77
2023-01-19T23:47:57.680Z,1.80
2023-01-19T23:50:30.364Z,1.86
2023-01-19T23:52:59.614Z,1.75
2023-01-19T23:55:29.772Z,1.91
2023-01-19T23:58:01.094Z,1.96
